• Join FlightAware (Why Join?)
  • Login
  • US Flag 
03:19PM EDT


 

Airport Tracker/Info


-or-


 

Live Flight TrackerFlight Track Log ✈ IBE3255 ✈ 08-May-2013 ✈ LIMC / MXP - LEMD / MAD

Flight Track Log - Related Links

Times and Time Zones

All times are in EDT time to prevent confusion due to time zone crossing. See the IBE3255 flight status page for this flight to view local times or setup timezone preferences in your user account.

Time Position Orientation Groundspeed Altitude Reporting Facility
EDT Latitude Longitude Course Direction KTS MPH feet Rate Location/Type
01:45PM 44.6851 6.0284 245° Southwest  Level Estimated
01:46PM 44.6406 5.9078 243° Southwest  Level Estimated
01:47PM 44.5960 5.7874 243° Southwest  Level Estimated
01:48PM 44.5513 5.6672 242° Southwest  Level Estimated
01:49PM 44.5065 5.5472 242° Southwest  Level Estimated
01:50PM 44.4615 5.4274 242° Southwest  Level Estimated
01:51PM 44.4164 5.3077 242° Southwest  Level Estimated
01:52PM 44.3711 5.1882 242° Southwest  Level Estimated
01:53PM 44.3258 5.0690 242° Southwest  Level Estimated
01:54PM 44.2803 4.9498 242° Southwest  Level Estimated
01:55PM 44.2347 4.8309 242° Southwest  Level Estimated
01:56PM 44.1890 4.7122 242° Southwest  Level Estimated
01:57PM 44.1432 4.5936 242° Southwest  Level Estimated
01:58PM 44.0972 4.4753 242° Southwest  Level Estimated
01:59PM 44.0511 4.3571 242° Southwest  Level Estimated
02:00PM 44.0049 4.2391 241° Southwest  Level Estimated
02:01PM 43.9586 4.1213 241° Southwest  Level Estimated
02:02PM 43.9121 4.0036 241° Southwest  Level Estimated
02:03PM 43.8655 3.8862 241° Southwest  Level Estimated
02:04PM 43.8189 3.7689 241° Southwest  Level Estimated
02:05PM 43.7720 3.6518 241° Southwest  Level Estimated
02:06PM 43.7251 3.5349 241° Southwest  Level Estimated
02:07PM 43.6781 3.4182 241° Southwest  Level Estimated
02:08PM 43.6309 3.3017 241° Southwest  Level Estimated
02:09PM 43.5836 3.1853 241° Southwest  Level Estimated
02:10PM 43.5362 3.0692 241° Southwest  Level Estimated
02:11PM 43.4887 2.9532 241° Southwest  Level Estimated
02:12PM 43.4410 2.8374 240° Southwest  Level Estimated
02:13PM 43.3933 2.7218 240° Southwest  Level Estimated
02:14PM 43.3454 2.6063 240° Southwest  Level Estimated
02:15PM 43.2974 2.4911 240° Southwest  Level Estimated
02:16PM 43.2493 2.3760 240° Southwest  Level Estimated
02:17PM 43.2011 2.2611 240° Southwest  Level Estimated
02:18PM 43.1528 2.1464 240° Southwest  Level Estimated
02:19PM 43.1043 2.0319 240° Southwest  Level Estimated
02:20PM 43.0558 1.9175 240° Southwest  Level Estimated
02:21PM 43.0071 1.8034 240° Southwest  Level Estimated
02:22PM 42.9583 1.6894 240° Southwest  Level Estimated
02:23PM 42.9094 1.5756 240° Southwest  Level Estimated
02:24PM 42.8604 1.4620 240° Southwest  Level Estimated
02:25PM 42.8112 1.3485 239° Southwest  Level Estimated
02:26PM 42.7620 1.2353 239° Southwest  Level Estimated
02:27PM 42.7127 1.1222 239° Southwest  Level Estimated
02:28PM 42.6632 1.0093 239° Southwest  Level Estimated
02:29PM 42.6136 0.8966 239° Southwest  Level Estimated
02:30PM 42.5639 0.7840 239° Southwest  Level Estimated
02:31PM 42.5142 0.6717 239° Southwest  Level Estimated
02:32PM 42.4643 0.5595 239° Southwest  Level Estimated
02:33PM 42.4142 0.4475 239° Southwest  Level Estimated
02:34PM 42.3641 0.3357 239° Southwest  Level Estimated
02:35PM 42.3139 0.2240 239° Southwest  Level Estimated
02:36PM 42.2636 0.1126 239° Southwest  Level Estimated
02:37PM 42.2131 0.0013 239° Southwest  Level Estimated
02:38PM 42.1626 -0.1098 238° Southwest  Level Estimated
02:39PM 42.1119 -0.2208 238° Southwest  Level Estimated
02:40PM 42.0611 -0.3315 238° Southwest  Level Estimated
02:41PM 42.0103 -0.4421 238° Southwest  Level Estimated
02:42PM 41.9593 -0.5525 238° Southwest  Level Estimated
02:43PM 41.9082 -0.6628 238° Southwest  Level Estimated
02:44PM 41.8570 -0.7728 238° Southwest  Level Estimated
02:45PM 41.8057 -0.8827 238° Southwest  Level Estimated
02:46PM 41.7543 -0.9924 238° Southwest  Level Estimated
02:47PM 41.7028 -1.1019 238° Southwest  Level Estimated
02:48PM 41.6512 -1.2112 238° Southwest  Level Estimated
02:49PM 41.5995 -1.3204 238° Southwest  Level Estimated
02:50PM 41.5477 -1.4294 238° Southwest  Level Estimated
02:51PM 41.4958 -1.5382 238° Southwest  Level Estimated
02:52PM 41.4438 -1.6469 237° Southwest  Level Estimated
02:53PM 41.3917 -1.7553 237° Southwest  Level Estimated
02:54PM 41.3394 -1.8636 237° Southwest  Level Estimated
02:55PM 41.2871 -1.9718 237° Southwest  Level Estimated
02:56PM 41.2347 -2.0797 237° Southwest  Level Estimated
02:57PM 41.1822 -2.1875 237° Southwest  Level Estimated
02:58PM 41.1296 -2.2951 237° Southwest  Level Estimated
02:59PM 41.0768 -2.4025 237° Southwest  Level Estimated
03:00PM 41.0240 -2.5098 237° Southwest  Level Estimated
03:01PM 40.9711 -2.6169 237° Southwest  Level Estimated
03:02PM 40.9181 -2.7238 237° Southwest  Level Estimated
03:03PM 40.8650 -2.8306 237° Southwest  Level Estimated
03:04PM 40.8117 -2.9371 237° Southwest  Level Estimated
03:05PM 40.7584 -3.0435 237° Southwest  Level Estimated
03:06PM 40.7050 -3.1498 236° Southwest  Level Estimated
03:07PM 40.6515 -3.2558 236° Southwest  Level Estimated
03:08PM 40.5979 -3.3617 236° Southwest  Level Estimated
03:09PM 40.5442 -3.4674 236° Southwest  Level Estimated
03:10PM 40.4936 -3.5668 236° Southwest  Level Estimated
03:11PM 40.4936 -3.5668 217° Southwest  Level Estimated
03:12PM 40.4936 -3.5668 217° Southwest  Level Estimated
03:13PM 40.4936 -3.5668 217° Southwest  Level Estimated
03:14PM 40.4936 -3.5668 217° Southwest  Level Estimated
03:15PM 40.4936 -3.5668 217° Southwest  Level Estimated
03:16PM 40.4936 -3.5668 217° Southwest  Level Estimated
03:17PM 40.4936 -3.5668 217° Southwest  Level Estimated
03:18PM 40.4936 -3.5668 217° Southwest  Level Estimated
03:19PM 40.4936 -3.5668 217° Southwest  Level Estimated
03:20PM 40.4936 -3.5668 217° Southwest  Level Estimated
03:21PM 40.4936 -3.5668 217° Southwest  Level Estimated
03:22PM 40.4936 -3.5668 217° Southwest  Level Estimated
03:23PM 40.4936 -3.5668 217° Southwest  Level Estimated
03:24PM 40.4936 -3.5668 217° Southwest  Level Estimated
03:25PM 40.4936 -3.5668 217° Southwest  Level Estimated